Main page
METAR-TAF:

Airports :

Singapore, Singapore

Paya Lebar Air Base

latitude: 01-22N, longitude: 103-55E, elevation: 18 m

Current weather observation

The report was made 30 minutes ago, at 12:00 UTC
Wind 5 kt from the Northeast
Temperature 29°C
Humidity 79%
Pressure 1011 hPa
Visibility 10 km or more
Few clouds at a height of 1800 ft
Broken clouds at a height of 30000 ft

METAR: WSAP 141200Z 05005KT 9999 FEW018 BKN300 29/25 Q1011

Time: 20:30 (12:30 UTC)

Forecast

The report was made 1 hour and 30 minutes ago, at 11:00 UTC
Forecast valid from 14 at 12 UTC to 15 at 18 UTC
Wind 8 kt from the Northeast
Visibility 10 km or more
Few clouds at a height of 1800 ft, Cumulonimbus.
Scattered clouds at a height of 2000 ft
Temporary
from 15 at 05 UTC to 15 at 09 UTC
Visibility: 3000 m
Few clouds at a height of 1200 ft, Cumulonimbus.
Broken clouds at a height of 1500 ft
thunderstorm, rain

TAF: WSAP 141100Z 1412/1518 04008KT 9999 FEW018CB SCT020 TEMPO 1505/1509 3000 TSRA FEW012CB BKN015

METAR-TAF

Weather observations and forecasts of more than 4000 airports (METAR and TAF reports).

The available stations are represented by yellow and red dots on the map.

Hover mouse over dot to see the name of the station.

Then click to see weather observations and forecasts.

To change the map : click on the green buttons with a black cross to zoom in, on the green button with a dash to zoom out, or on the green arrows for adjacent maps.


METAR-TAF: